createdAt,value
2022-11-30T00:00:23.145Z,6.70
2022-11-30T00:02:53.829Z,6.70
2022-11-30T00:05:22.538Z,6.70
2022-11-30T00:07:50.001Z,6.70
2022-11-30T00:10:17.250Z,6.70
2022-11-30T00:12:44.250Z,6.70
2022-11-30T00:15:16.982Z,6.70
2022-11-30T00:17:44.627Z,6.70
2022-11-30T00:20:12.602Z,6.70
2022-11-30T00:22:39.478Z,6.70
2022-11-30T00:25:07.121Z,6.70
2022-11-30T00:27:34.117Z,6.60
2022-11-30T00:30:01.030Z,6.60
2022-11-30T00:32:28.358Z,6.70
2022-11-30T00:34:55.348Z,6.60
2022-11-30T00:37:22.185Z,6.60
2022-11-30T00:39:49.125Z,6.60
2022-11-30T00:42:15.953Z,6.70
2022-11-30T00:44:42.778Z,6.60
2022-11-30T00:47:09.826Z,6.60
2022-11-30T00:49:36.674Z,6.60
2022-11-30T00:52:03.595Z,6.60
2022-11-30T00:54:30.468Z,6.70
2022-11-30T00:56:57.442Z,6.60
2022-11-30T00:59:24.310Z,6.60
2022-11-30T01:01:52.871Z,6.60
2022-11-30T01:04:19.773Z,6.50
2022-11-30T01:06:46.570Z,6.40
2022-11-30T01:09:13.422Z,6.40
2022-11-30T01:11:40.201Z,6.40
2022-11-30T01:14:07.160Z,6.40
2022-11-30T01:16:34.211Z,6.40
2022-11-30T01:19:01.193Z,6.40
2022-11-30T01:21:28.642Z,6.40
2022-11-30T01:23:56.032Z,6.40
2022-11-30T01:26:23.561Z,6.30
2022-11-30T01:28:54.165Z,6.40
2022-11-30T01:31:21.874Z,6.50
2022-11-30T01:33:49.635Z,6.50
2022-11-30T01:36:19.014Z,6.50
2022-11-30T01:38:47.487Z,6.50
2022-11-30T01:41:17.212Z,6.30
2022-11-30T01:43:51.505Z,6.40
2022-11-30T01:46:21.365Z,6.40
2022-11-30T01:48:50.973Z,6.40
2022-11-30T01:51:17.903Z,6.30
2022-11-30T01:53:44.869Z,6.30
2022-11-30T01:56:11.871Z,6.30
2022-11-30T01:58:38.777Z,6.30
2022-11-30T02:01:06.079Z,6.30
2022-11-30T02:03:36.335Z,6.30
2022-11-30T02:06:03.221Z,6.30
2022-11-30T02:08:30.816Z,6.20
2022-11-30T02:10:59.222Z,6.20
2022-11-30T02:13:50.082Z,6.10
2022-11-30T02:16:29.058Z,6.20
2022-11-30T02:19:07.928Z,6.20
2022-11-30T02:21:43.084Z,6.10
2022-11-30T02:24:12.693Z,6.00
2022-11-30T02:26:54.725Z,6.00
2022-11-30T02:29:27.695Z,6.10
2022-11-30T02:31:57.222Z,6.10
2022-11-30T02:34:26.025Z,6.00
2022-11-30T02:36:54.145Z,6.10
2022-11-30T02:39:24.152Z,6.00
2022-11-30T02:41:51.052Z,6.00
2022-11-30T02:44:18.973Z,6.00
2022-11-30T02:47:04.531Z,6.10
2022-11-30T02:49:31.376Z,6.00
2022-11-30T02:51:58.708Z,6.10
2022-11-30T02:54:25.637Z,6.20
2022-11-30T02:56:52.574Z,6.10
2022-11-30T02:59:20.193Z,6.10
2022-11-30T03:01:47.080Z,6.10
2022-11-30T03:04:13.973Z,6.10
2022-11-30T03:06:40.879Z,6.10
2022-11-30T03:09:07.964Z,6.20
2022-11-30T03:11:34.887Z,6.10
2022-11-30T03:14:01.696Z,6.20
2022-11-30T03:16:28.565Z,6.20
2022-11-30T03:18:57.679Z,6.20
2022-11-30T03:21:24.561Z,6.20
2022-11-30T03:23:51.698Z,6.20
2022-11-30T03:26:18.549Z,6.20
2022-11-30T03:28:45.392Z,6.20
2022-11-30T03:31:12.968Z,6.10
2022-11-30T03:33:43.146Z,6.10
2022-11-30T03:36:10.821Z,6.20
2022-11-30T03:38:37.986Z,6.20
2022-11-30T03:41:06.675Z,6.20
2022-11-30T03:43:33.657Z,6.10
2022-11-30T03:46:01.005Z,6.20
2022-11-30T03:48:28.102Z,6.10
2022-11-30T03:50:54.973Z,6.10
2022-11-30T03:53:22.605Z,6.10
2022-11-30T03:55:54.036Z,6.10
2022-11-30T03:58:21.099Z,6.10
2022-11-30T04:00:48.070Z,6.10
2022-11-30T04:03:15.110Z,6.00
2022-11-30T04:05:41.972Z,6.10
2022-11-30T04:08:08.904Z,6.10
2022-11-30T04:10:35.670Z,6.00
2022-11-30T04:13:02.494Z,6.00
2022-11-30T04:15:29.337Z,6.00
2022-11-30T04:17:56.146Z,6.00
2022-11-30T04:20:23.199Z,5.90
2022-11-30T04:22:50.040Z,5.90
2022-11-30T04:25:16.929Z,6.00
2022-11-30T04:27:45.739Z,6.00
2022-11-30T04:30:12.973Z,6.00
2022-11-30T04:32:39.729Z,6.00
2022-11-30T04:35:06.672Z,6.00
2022-11-30T04:37:33.576Z,6.00
2022-11-30T04:40:00.455Z,6.00
2022-11-30T04:42:27.306Z,6.00
2022-11-30T04:44:54.090Z,6.00
2022-11-30T04:47:20.889Z,6.00
2022-11-30T04:49:47.772Z,6.00
2022-11-30T04:52:14.599Z,6.00
2022-11-30T04:54:41.443Z,6.00
2022-11-30T04:57:08.262Z,6.10
2022-11-30T04:59:35.018Z,6.00
2022-11-30T05:02:01.977Z,6.00
2022-11-30T05:04:28.950Z,6.00
2022-11-30T05:06:56.040Z,6.00
2022-11-30T05:09:22.836Z,6.00
2022-11-30T05:11:49.730Z,6.00
2022-11-30T05:14:16.640Z,6.00
2022-11-30T05:16:43.433Z,6.00
2022-11-30T05:19:10.470Z,6.00
2022-11-30T05:21:41.274Z,5.90
2022-11-30T05:24:11.118Z,6.00
2022-11-30T05:26:38.381Z,5.90
2022-11-30T05:29:05.538Z,5.90
2022-11-30T05:31:33.069Z,5.90
2022-11-30T05:34:00.173Z,5.90
2022-11-30T05:36:27.065Z,5.90
2022-11-30T05:38:53.873Z,5.90
2022-11-30T05:41:20.672Z,5.90
2022-11-30T05:43:47.594Z,5.90
2022-11-30T05:46:14.462Z,5.90
2022-11-30T05:48:41.431Z,5.90
2022-11-30T05:51:12.391Z,5.90
2022-11-30T05:53:39.466Z,5.90
2022-11-30T05:56:07.735Z,5.90
2022-11-30T05:58:34.662Z,5.90
2022-11-30T06:01:01.557Z,5.90
2022-11-30T06:03:29.903Z,5.80
2022-11-30T06:05:56.767Z,5.90
2022-11-30T06:08:23.963Z,5.90
2022-11-30T06:10:50.757Z,6.00
2022-11-30T06:13:18.050Z,5.90
2022-11-30T06:15:44.901Z,5.90
2022-11-30T06:18:12.760Z,5.90
2022-11-30T06:20:39.639Z,5.90
2022-11-30T06:23:06.453Z,5.90
2022-11-30T06:25:33.331Z,5.90
2022-11-30T06:28:00.161Z,5.90
2022-11-30T06:30:27.077Z,6.00
2022-11-30T06:32:53.883Z,5.90
2022-11-30T06:35:20.765Z,5.90
2022-11-30T06:37:47.575Z,6.00
2022-11-30T06:40:14.575Z,6.00
2022-11-30T06:42:41.381Z,6.00
2022-11-30T06:45:08.950Z,6.00
2022-11-30T06:47:35.798Z,6.00
2022-11-30T06:50:02.904Z,6.00
2022-11-30T06:52:30.843Z,6.00
2022-11-30T06:54:57.722Z,6.00
2022-11-30T06:57:28.389Z,6.00
2022-11-30T06:59:55.823Z,6.00
2022-11-30T07:02:22.601Z,6.00
2022-11-30T07:04:50.080Z,6.00
2022-11-30T07:07:17.305Z,6.00
2022-11-30T07:09:44.210Z,6.10
2022-11-30T07:12:11.505Z,6.10
2022-11-30T07:14:38.516Z,6.10
2022-11-30T07:17:05.332Z,6.10
2022-11-30T07:19:34.251Z,6.10
2022-11-30T07:22:01.396Z,6.20
2022-11-30T07:24:47.051Z,6.20
2022-11-30T07:27:14.165Z,6.20
2022-11-30T07:29:41.037Z,6.20
2022-11-30T07:32:07.934Z,6.20
2022-11-30T07:34:34.845Z,6.20
2022-11-30T07:37:01.668Z,6.20
2022-11-30T07:39:28.609Z,6.30
2022-11-30T07:41:55.442Z,6.30
2022-11-30T07:44:25.766Z,6.30
2022-11-30T07:46:52.708Z,6.30
2022-11-30T07:49:19.508Z,6.40
2022-11-30T07:51:46.383Z,6.50
2022-11-30T07:54:13.193Z,6.40
2022-11-30T07:56:40.202Z,6.50
2022-11-30T07:59:07.085Z,6.50
2022-11-30T08:01:34.056Z,6.50
2022-11-30T08:04:00.980Z,6.50
2022-11-30T08:06:29.080Z,6.50
2022-11-30T08:08:57.670Z,6.60
2022-11-30T08:11:26.069Z,6.70
2022-11-30T08:13:53.158Z,6.80
2022-11-30T08:16:21.571Z,7.00
2022-11-30T08:18:48.896Z,7.00
2022-11-30T08:21:17.033Z,7.00
2022-11-30T08:23:45.606Z,7.10
2022-11-30T08:26:15.265Z,7.10
2022-11-30T08:28:43.181Z,7.10
2022-11-30T08:31:11.688Z,7.20
2022-11-30T08:33:38.745Z,7.30
2022-11-30T08:36:10.036Z,7.20
2022-11-30T08:38:36.854Z,7.20
2022-11-30T08:41:04.402Z,7.30
2022-11-30T08:43:31.794Z,7.20
2022-11-30T08:45:58.634Z,7.20
2022-11-30T08:48:25.498Z,7.20
2022-11-30T08:50:52.338Z,7.20
2022-11-30T08:53:19.178Z,7.30
2022-11-30T08:55:55.128Z,7.30
2022-11-30T08:58:22.046Z,7.30
2022-11-30T09:00:49.185Z,7.40
2022-11-30T09:03:16.364Z,7.50
2022-11-30T09:05:43.137Z,7.60
2022-11-30T09:08:10.045Z,7.60
2022-11-30T09:10:36.895Z,7.70
2022-11-30T09:13:03.748Z,7.70
2022-11-30T09:15:30.653Z,7.80
2022-11-30T09:17:57.537Z,8.00
2022-11-30T09:20:24.513Z,8.10
2022-11-30T09:22:51.332Z,8.10
2022-11-30T09:25:18.142Z,8.10
2022-11-30T09:27:44.974Z,8.10
2022-11-30T09:30:11.978Z,8.20
2022-11-30T09:32:38.821Z,8.40
2022-11-30T09:35:09.954Z,8.40
2022-11-30T09:37:40.306Z,8.30
2022-11-30T09:40:07.450Z,8.10
2022-11-30T09:42:54.670Z,8.00
2022-11-30T09:45:28.563Z,8.20
2022-11-30T09:48:21.923Z,8.00
2022-11-30T09:50:49.579Z,8.00
2022-11-30T09:53:28.958Z,7.90
2022-11-30T09:55:56.729Z,7.80
2022-11-30T09:58:28.471Z,7.80
2022-11-30T10:00:56.104Z,7.80
2022-11-30T10:03:23.601Z,7.80
2022-11-30T10:06:01.729Z,7.90
2022-11-30T10:08:28.594Z,7.90
2022-11-30T10:11:13.092Z,7.90
2022-11-30T10:13:42.921Z,8.00
2022-11-30T10:16:14.784Z,8.00
2022-11-30T10:19:08.076Z,8.00
2022-11-30T10:21:43.023Z,8.10
2022-11-30T10:24:15.195Z,8.00
2022-11-30T10:26:45.562Z,8.10
2022-11-30T10:29:17.533Z,8.10
2022-11-30T10:31:44.928Z,8.30
2022-11-30T10:34:22.447Z,8.30
2022-11-30T10:36:54.919Z,8.40
2022-11-30T10:39:30.670Z,8.80
2022-11-30T10:42:04.257Z,9.10
2022-11-30T10:44:33.904Z,9.30
2022-11-30T10:47:19.112Z,9.50
2022-11-30T10:49:47.830Z,9.90
2022-11-30T10:52:16.358Z,9.60
2022-11-30T10:54:43.260Z,9.50
2022-11-30T10:57:10.175Z,9.20
2022-11-30T10:59:46.019Z,9.20
2022-11-30T11:02:32.077Z,9.20
2022-11-30T11:05:09.941Z,9.10
2022-11-30T11:07:45.263Z,8.90
2022-11-30T11:10:15.406Z,9.00
2022-11-30T11:12:46.815Z,8.90
2022-11-30T11:15:22.319Z,8.90
2022-11-30T11:17:49.375Z,8.80
2022-11-30T11:20:50.105Z,8.90
2022-11-30T11:23:23.177Z,8.90
2022-11-30T11:25:53.194Z,8.90
2022-11-30T11:28:21.975Z,8.90
2022-11-30T11:30:48.936Z,8.80
2022-11-30T11:33:15.745Z,8.70
2022-11-30T11:35:56.127Z,8.60
2022-11-30T11:38:22.982Z,8.70
2022-11-30T11:40:52.538Z,8.70
2022-11-30T11:43:19.451Z,8.70
2022-11-30T11:45:51.162Z,8.70
2022-11-30T11:48:44.203Z,8.60
2022-11-30T11:51:11.146Z,8.50
2022-11-30T11:53:47.607Z,8.50
2022-11-30T11:56:23.598Z,8.60
2022-11-30T11:59:03.240Z,8.50
2022-11-30T12:01:39.875Z,8.60
2022-11-30T12:04:10.680Z,8.40
2022-11-30T12:06:37.884Z,8.30
2022-11-30T12:09:14.418Z,8.40
2022-11-30T12:11:45.637Z,8.40
2022-11-30T12:14:13.586Z,8.40
2022-11-30T12:16:40.374Z,8.40
2022-11-30T12:19:13.351Z,8.20
2022-11-30T12:21:46.325Z,8.20
2022-11-30T12:24:22.818Z,8.10
2022-11-30T12:27:03.443Z,8.10
2022-11-30T12:29:30.270Z,8.00
2022-11-30T12:32:10.761Z,7.90
2022-11-30T12:34:52.781Z,7.90
2022-11-30T12:37:34.259Z,8.00
2022-11-30T12:40:10.642Z,7.90
2022-11-30T12:42:44.791Z,7.90
2022-11-30T12:45:11.692Z,7.90
2022-11-30T12:47:38.453Z,8.00
2022-11-30T12:50:08.819Z,7.90
2022-11-30T12:52:43.096Z,7.90
2022-11-30T12:55:25.198Z,8.00
2022-11-30T12:57:52.136Z,7.90
2022-11-30T13:00:20.547Z,7.90
2022-11-30T13:02:56.617Z,7.90
2022-11-30T13:05:39.105Z,7.90
2022-11-30T13:08:13.810Z,8.00
2022-11-30T13:10:42.915Z,7.90
2022-11-30T13:13:21.942Z,7.80
2022-11-30T13:15:49.828Z,7.80
2022-11-30T13:18:21.261Z,7.80
2022-11-30T13:20:50.893Z,7.60
2022-11-30T13:23:36.085Z,7.70
2022-11-30T13:26:09.004Z,7.60
2022-11-30T13:28:42.168Z,7.70
2022-11-30T13:31:12.994Z,7.80
2022-11-30T13:33:57.009Z,7.80
2022-11-30T13:36:30.009Z,7.70
2022-11-30T13:39:15.131Z,7.70
2022-11-30T13:41:42.052Z,7.70
2022-11-30T13:44:27.802Z,7.70
2022-11-30T13:46:54.718Z,7.70
2022-11-30T13:49:23.659Z,7.70
2022-11-30T13:52:20.733Z,7.70
2022-11-30T13:54:47.289Z,7.60
2022-11-30T13:57:18.193Z,7.60
2022-11-30T13:59:49.689Z,7.50
2022-11-30T14:05:20.315Z,7.50
2022-11-30T14:08:07.225Z,7.40
2022-11-30T14:10:34.236Z,7.30
2022-11-30T14:13:01.135Z,7.30
2022-11-30T14:15:36.796Z,7.20
2022-11-30T14:18:15.349Z,7.20
2022-11-30T14:20:43.938Z,7.20
2022-11-30T14:23:13.218Z,7.20
2022-11-30T14:25:47.011Z,7.20
2022-11-30T14:28:34.311Z,7.20
2022-11-30T14:31:01.322Z,7.30
2022-11-30T14:33:51.501Z,7.20
2022-11-30T14:36:19.356Z,7.10
2022-11-30T14:38:46.208Z,7.20
2022-11-30T14:41:26.491Z,7.20
2022-11-30T14:44:00.385Z,7.20
2022-11-30T14:46:27.825Z,7.20
2022-11-30T14:49:11.301Z,7.10
2022-11-30T14:51:38.435Z,7.10
2022-11-30T14:54:11.750Z,7.00
2022-11-30T14:56:49.488Z,7.00
2022-11-30T14:59:25.199Z,7.10
2022-11-30T15:01:55.995Z,7.00
2022-11-30T15:04:24.388Z,7.00
2022-11-30T15:06:51.420Z,6.90
2022-11-30T15:09:20.060Z,7.00
2022-11-30T15:11:47.640Z,6.90
2022-11-30T15:14:14.490Z,6.90
2022-11-30T15:16:53.356Z,6.90
2022-11-30T15:19:22.763Z,6.90
2022-11-30T15:21:50.344Z,6.90
2022-11-30T15:24:17.562Z,6.80
2022-11-30T15:26:50.443Z,6.80
2022-11-30T15:29:21.216Z,6.70
2022-11-30T15:31:50.082Z,6.70
2022-11-30T15:34:37.352Z,6.80
2022-11-30T15:37:04.390Z,6.70
2022-11-30T15:39:32.654Z,6.70
2022-11-30T15:42:00.380Z,6.70
2022-11-30T15:44:33.235Z,6.70
2022-11-30T15:47:01.398Z,6.60
2022-11-30T15:49:29.669Z,6.60
2022-11-30T15:52:26.195Z,6.60
2022-11-30T15:54:55.248Z,6.60
2022-11-30T15:57:23.122Z,6.50
2022-11-30T16:00:06.154Z,6.70
2022-11-30T16:02:34.333Z,6.60
2022-11-30T16:05:27.949Z,6.50
2022-11-30T16:07:57.250Z,6.60
2022-11-30T16:10:25.919Z,6.50
2022-11-30T16:12:53.600Z,6.40
2022-11-30T16:15:27.890Z,6.60
2022-11-30T16:18:09.704Z,6.60
2022-11-30T16:20:36.691Z,6.50
2022-11-30T16:23:05.904Z,6.40
2022-11-30T16:25:32.831Z,6.40
2022-11-30T16:27:59.711Z,6.50
2022-11-30T16:30:26.546Z,6.30
2022-11-30T16:32:53.428Z,6.40
2022-11-30T16:35:20.500Z,6.50
2022-11-30T16:37:47.536Z,6.50
2022-11-30T16:40:14.472Z,6.50
2022-11-30T16:42:41.440Z,6.50
2022-11-30T16:45:13.359Z,6.40
2022-11-30T16:47:40.293Z,6.40
2022-11-30T16:50:07.610Z,6.50
2022-11-30T16:52:34.510Z,6.50
2022-11-30T16:55:01.353Z,6.50
2022-11-30T16:57:28.225Z,6.40
2022-11-30T16:59:55.221Z,6.40
2022-11-30T17:02:22.653Z,6.30
2022-11-30T17:04:49.763Z,6.40
2022-11-30T17:07:16.760Z,6.40
2022-11-30T17:09:43.649Z,6.40
2022-11-30T17:12:10.555Z,6.40
2022-11-30T17:14:37.390Z,6.40
2022-11-30T17:17:04.298Z,6.40
2022-11-30T17:19:31.233Z,6.40
2022-11-30T17:21:58.080Z,6.40
2022-11-30T17:24:25.021Z,6.40
2022-11-30T17:26:51.845Z,6.30
2022-11-30T17:29:18.715Z,6.30
2022-11-30T17:31:45.623Z,6.20
2022-11-30T17:34:12.521Z,6.20
2022-11-30T17:36:39.522Z,6.20
2022-11-30T17:39:07.388Z,6.10
2022-11-30T17:41:34.312Z,6.10
2022-11-30T17:44:01.984Z,6.10
2022-11-30T17:46:28.925Z,6.00
2022-11-30T17:48:55.985Z,6.10
2022-11-30T17:51:23.001Z,6.00
2022-11-30T17:53:49.868Z,6.00
2022-11-30T17:56:17.091Z,5.90
2022-11-30T17:58:44.882Z,5.90
2022-11-30T18:01:19.081Z,5.80
2022-11-30T18:03:46.715Z,5.80
2022-11-30T18:06:14.366Z,5.70
2022-11-30T18:08:41.644Z,5.70
2022-11-30T18:11:15.661Z,5.60
2022-11-30T18:13:42.609Z,5.60
2022-11-30T18:16:19.926Z,5.60
2022-11-30T18:18:48.365Z,5.50
2022-11-30T18:21:16.785Z,5.40
2022-11-30T18:23:43.783Z,5.40
2022-11-30T18:26:11.725Z,5.40
2022-11-30T18:28:38.712Z,5.30
2022-11-30T18:31:06.675Z,5.20
2022-11-30T18:33:34.132Z,5.20
2022-11-30T18:36:01.414Z,5.30
2022-11-30T18:38:31.653Z,5.20
2022-11-30T18:41:02.905Z,5.20
2022-11-30T18:43:31.694Z,5.30
2022-11-30T18:46:02.502Z,5.20
2022-11-30T18:48:29.363Z,5.10
2022-11-30T18:50:56.171Z,5.10
2022-11-30T18:53:23.153Z,5.10
2022-11-30T18:55:49.957Z,5.10
2022-11-30T18:58:16.839Z,5.10
2022-11-30T19:00:43.708Z,5.10
2022-11-30T19:03:10.580Z,5.00
2022-11-30T19:05:39.756Z,5.00
2022-11-30T19:08:12.627Z,5.10
2022-11-30T19:10:39.787Z,5.10
2022-11-30T19:13:06.897Z,5.10
2022-11-30T19:15:38.025Z,5.10
2022-11-30T19:18:04.960Z,5.10
2022-11-30T19:20:31.801Z,4.90
2022-11-30T19:22:58.645Z,4.90
2022-11-30T19:25:25.640Z,4.80
2022-11-30T19:27:52.441Z,4.70
2022-11-30T19:30:19.313Z,4.70
2022-11-30T19:32:46.268Z,4.60
2022-11-30T19:35:13.124Z,4.70
2022-11-30T19:37:39.966Z,4.70
2022-11-30T19:40:07.069Z,4.70
2022-11-30T19:42:33.908Z,4.70
2022-11-30T19:45:00.809Z,4.60
2022-11-30T19:47:27.732Z,4.80
2022-11-30T19:49:54.609Z,4.70
2022-11-30T19:52:21.487Z,4.70
2022-11-30T19:54:48.566Z,4.70
2022-11-30T19:57:15.467Z,4.80
2022-11-30T19:59:42.379Z,4.70
2022-11-30T20:02:12.006Z,4.70
2022-11-30T20:04:39.246Z,4.70
2022-11-30T20:07:06.126Z,4.70
2022-11-30T20:09:33.147Z,4.80
2022-11-30T20:12:00.138Z,4.80
2022-11-30T20:14:26.935Z,4.80
2022-11-30T20:16:53.856Z,4.80
2022-11-30T20:19:20.710Z,4.70
2022-11-30T20:21:48.413Z,4.70
2022-11-30T20:24:15.589Z,4.70
2022-11-30T20:26:43.486Z,4.70
2022-11-30T20:29:14.315Z,4.80
2022-11-30T20:31:41.985Z,4.80
2022-11-30T20:34:09.265Z,4.70
2022-11-30T20:36:36.219Z,4.70
2022-11-30T20:39:03.577Z,4.60
2022-11-30T20:41:30.436Z,4.70
2022-11-30T20:43:57.712Z,4.70
2022-11-30T20:46:24.567Z,4.70
2022-11-30T20:48:51.774Z,4.70
2022-11-30T20:51:35.300Z,4.60
2022-11-30T20:54:03.795Z,4.70
2022-11-30T20:56:30.783Z,4.60
2022-11-30T20:59:00.622Z,4.70
2022-11-30T21:01:28.052Z,4.60
2022-11-30T21:03:55.036Z,4.60
2022-11-30T21:06:21.960Z,4.50
2022-11-30T21:08:56.324Z,4.70
2022-11-30T21:11:23.736Z,4.70
2022-11-30T21:13:51.023Z,4.60
2022-11-30T21:16:25.644Z,4.70
2022-11-30T21:18:54.632Z,4.70
2022-11-30T21:21:23.415Z,4.70
2022-11-30T21:23:50.815Z,4.60
2022-11-30T21:26:22.441Z,4.60
2022-11-30T21:28:49.894Z,4.60
2022-11-30T21:31:16.847Z,4.60
2022-11-30T21:33:52.188Z,4.60
2022-11-30T21:36:20.495Z,4.50
2022-11-30T21:38:47.414Z,4.50
2022-11-30T21:41:14.632Z,4.50
2022-11-30T21:43:41.782Z,4.60
2022-11-30T21:46:10.621Z,4.60
2022-11-30T21:48:38.324Z,4.50
2022-11-30T21:51:06.506Z,4.50
2022-11-30T21:53:36.130Z,4.50
2022-11-30T21:56:04.266Z,4.50
2022-11-30T21:58:32.709Z,4.40
2022-11-30T22:01:00.642Z,4.60
2022-11-30T22:03:27.983Z,4.50
2022-11-30T22:06:14.730Z,4.40
2022-11-30T22:08:42.079Z,4.60
2022-11-30T22:11:13.504Z,4.60
2022-11-30T22:13:40.687Z,4.50
2022-11-30T22:16:09.025Z,4.60
2022-11-30T22:18:36.303Z,4.50
2022-11-30T22:21:09.219Z,4.60
2022-11-30T22:23:36.947Z,4.60
2022-11-30T22:26:24.114Z,4.50
2022-11-30T22:28:55.756Z,4.40
2022-11-30T22:31:24.310Z,4.40
2022-11-30T22:33:51.400Z,4.60
2022-11-30T22:36:20.631Z,4.50
2022-11-30T22:38:48.101Z,4.50
2022-11-30T22:41:16.735Z,4.50
2022-11-30T22:43:44.616Z,4.40
2022-11-30T22:46:16.305Z,4.40
2022-11-30T22:48:43.735Z,4.40
2022-11-30T22:51:12.088Z,4.40
2022-11-30T22:53:39.512Z,4.30
2022-11-30T22:56:08.073Z,4.40
2022-11-30T22:58:35.115Z,4.40
2022-11-30T23:01:10.579Z,4.40
2022-11-30T23:03:38.046Z,4.40
2022-11-30T23:06:05.832Z,4.30
2022-11-30T23:08:32.815Z,4.40
2022-11-30T23:11:01.012Z,4.30
2022-11-30T23:13:28.102Z,4.50
2022-11-30T23:15:57.771Z,4.40
2022-11-30T23:18:24.954Z,4.40
2022-11-30T23:20:51.896Z,4.30
2022-11-30T23:23:18.756Z,4.40
2022-11-30T23:25:45.738Z,4.40
2022-11-30T23:28:12.605Z,4.30
2022-11-30T23:30:39.710Z,4.30
2022-11-30T23:33:06.811Z,4.30
2022-11-30T23:35:33.831Z,4.40
2022-11-30T23:38:00.778Z,4.40
2022-11-30T23:40:27.719Z,4.40
2022-11-30T23:42:54.614Z,4.40
2022-11-30T23:45:21.817Z,4.40
2022-11-30T23:47:48.890Z,4.40
2022-11-30T23:50:15.865Z,4.30
2022-11-30T23:52:42.843Z,4.40
2022-11-30T23:55:09.946Z,4.40
2022-11-30T23:57:36.883Z,4.30
